Alice, Texas
Current Conditions -  °F | °C
As of 12:53 PM on Friday 31 Oct 2014 (Local Time) from KALI Reporting Station
Scattered Clouds Scattered Clouds  
Wind Chill: 73°   Ceiling: Unl
Heat Index: 73°   Visibility: 10mi
Dew Point: 62°   Wind: 14mph
Humidity: 68%   Direction: 30°NNE
Pressure: 30.21"   Gusts: NA
Location:  27.75°N, 98.06°W
Report Text: KALI 311753Z AUTO 03012KT 10SM SCT050 23/17 A3021 RMK AO2 SLP227 60112 T02280167 10233 20189 50009 $
Loading
Personal Weather Stations






























Interactive Weather Map New forecast layout! Learn more

10-Day Weather Forecast

Advertisements
Track Severe Weather on mobile